Merritt Island, FL (32953)

3:35 AM EST on February 07, 2016 (GMT -0500)
Sunset Lakes | | Change Station
CLOSE
Current Station
Personal Weather Station
Location: Merritt Island, FL
Elevation: 35 ft
Nearby Weather Stations

Elev 35 ft 28.43 °N, 80.71 °W | Updated 2 minutes ago

Clear
Clear
49.3 °F
Feels Like 46 °F
N
7.0
Wind Variable Wind from West
Gusts 12.0 mph

Today
High -- | Low -- °F
--% Chance of Precip.
Yesterday
High -- | Low -- °F
Precip. -- in
Pressure 29.91 in
Visibility 10.0 miles
Clouds Overcast 700 ft
Windchill 46 °F
Dew Point 47 °F
Humidity 93%
Rainfall Not available.
Snow Depth Not available.
7:07 AM 6:07 PM
Waning Crescent, 2% visible
SPECI KXMR 070818Z AUTO 28015G28KT 10SM OVC007 10/08 A2991 RMK AO2 $
Pressure 29.91 in
Visibility 10.0 miles
Clouds Overcast 700 ft
Windchill 46 °F
Dew Point 47 °F
Humidity 93%
Rainfall Not available.
Snow Depth Not available.
7:07 AM 6:07 PM
Waning Crescent, 2% visible
SPECI KXMR 070818Z AUTO 28015G28KT 10SM OVC007 10/08 A2991 RMK AO2 $

10-Day Weather Forecast

Almanac

Astronomy

Feb. 07, 2016 Rise Set
Actual Time
Civil Twilight
Nautical Twilight
Astronomical Twilight
Moon
Length of Visible Light
Length of Day
Tomorrow will be .
, % of the Moon is Illuminated

Today's Extremes

State Highs State Lows

Community

WunderPhotos

Upload Photos

1,891,171 photos uploaded!

WunderBlog® & News

Nearby

Air Quality

  Air Quality AQ Index Pollutant
Not available.

Snow Depth

Station Depth Elevation

Earthquake Activity

City Distance Mag. Time & Date
Minimum magnitude displayed is 2.5.

Coastal Water Temperatures

Place Temperature

Stations

Nearby Weather Stations

Station Location Temp. Windchill Dew Point Humidity Wind Precip. Elev Updated Type
                   

Watches & Warnings

There are currently no watches in effect.